Nearby METAR Reports

 

KPMD - Palmdale, California, USA
Distance from station: NNE 12mi, 19km
Updated: Sun, 07-Mar-2021 7:53pm PST
Clear
Clear
 Wind from SW
Wind: SW 13 mph , 20 km/h
Temperature: 54°F , 12°C
Dew Point: 39°F , 4°C
Humidity: 58%
Barometer: 30.01 inHg , 1016.3 hPa
Clouds: Clear
Visibility: 10 miles , 16 km
2021/03/08 03:53 KPMD 080353Z 23011KT 10SM CLR 12/04 A3001 RMK AO2 SLP156 T01220039
KWJF - Lancaster/Fox, California, USA
Distance from station: N 17mi, 27km
Updated: Sun, 07-Mar-2021 7:56pm PST
Clear
Clear
 Wind from W
Wind: W 23 mph , 37 km/h
Temperature: 54°F , 12°C
Dew Point: 43°F , 6°C
Humidity: 67%
Barometer: 30.01 inHg , 1016.3 hPa
Clouds: Clear
Visibility: 10 miles , 16 km
2021/03/08 03:56 KWJF 080356Z 26020KT 10SM CLR 12/06 A3001 RMK AO2 PK WND 26026/0347 SLP163 T01170056
 
KMWS - Mount Wilson, California, USA
Distance from station: SSE 18mi, 30km
Updated: Wed, 13-May-2015 6:45am PDT
NOT Current

 Wind from S
Wind: S 3 mph , 6 km/h, Gust: 5 mph , 7 km/h
Temperature: 43°F , 6°C
Dew Point: -0°F , -18°C
Humidity: 16%
2015/05/13 13:45 KMWS 131345Z 18003G04KT 06/M18 RMK SNOW DEPTH 1.00
KWHP - La / Whiteman, California, USA
Distance from station: SW 21mi, 34km
Updated: Sun, 07-Mar-2021 7:00pm PST
Clear
Clear
 Wind from calm
Wind: Calm
Temperature: 54°F , 12°C
Dew Point: 48°F , 9°C
Humidity: 82%
Barometer: 30.09 inHg , 1019 hPa
Clouds: Clear
Visibility: 10 miles , 16 km
2021/03/08 03:00 KWHP 080300Z 00000KT 10SM SKC 12/09 A3009
 
KBUR - Burbank, California, USA
Distance from station: SSW 22mi, 35km
Updated: Sun, 07-Mar-2021 7:53pm PST
Overcast
Overcast
 Wind from WSW
Wind: WSW 6 mph , 9 km/h
Temperature: 54°F , 12°C
Dew Point: 46°F , 8°C
Humidity: 77%
Barometer: 30.07 inHg , 1018.3 hPa
Clouds: Overcast
Visibility: 10 miles , 16 km
Cloud details: Overcast 1700 ft
2021/03/08 03:53 KBUR 080353Z 24005KT 10SM OVC017 12/08 A3007 RMK AO2 SLP174 T01220083 $
KVNY - Van Nuys, California, USA
Distance from station: SW 25mi, 40km
Updated: Sun, 07-Mar-2021 7:51pm PST
Overcast
Overcast
 Wind from ESE
Wind: ESE 6 mph , 9 km/h
Temperature: 55°F , 13°C
Dew Point: 46°F , 8°C
Humidity: 72%
Barometer: 30.06 inHg , 1017.9 hPa
Clouds: Overcast
Visibility: 10 miles , 16 km
Cloud details: Overcast 2500 ft
2021/03/08 03:51 KVNY 080351Z 12005KT 10SM OVC025 13/08 A3006 RMK AO2 SLP176 T01330083
 
KEDW - Edwards Afb, California, USA
Distance from station: NNE 33mi, 53km
Updated: Sun, 07-Mar-2021 7:58pm PST
Mostly cloudy
Mostly cloudy
 Wind from WSW
Wind: WSW 16 mph , 26 km/h
Temperature: 55°F , 13°C
Dew Point: 41°F , 5°C
Humidity: 59%
Barometer: 29.96 inHg , 1014.6 hPa
Clouds: Mostly cloudy
Visibility: 10 miles , 16 km
Cloud details: Few Clouds 16000 ft
Mostly cloudy 20000 ft
2021/03/08 03:58 KEDW 080358Z AUTO 25014KT 10SM FEW160 BKN200 13/05 A2996 RMK AO2 SLP145 T01290048
KSMO - Santa Monica, California, USA
Distance from station: SSW 35mi, 57km
Updated: Sun, 07-Mar-2021 7:51pm PST
Partly cloudy
Partly cloudy
 Wind from calm
Wind: Calm
Temperature: 55°F , 13°C
Dew Point: 48°F , 9°C
Humidity: 77%
Barometer: 30.08 inHg , 1018.6 hPa
Clouds: Partly cloudy
Visibility: 10 miles , 16 km
Cloud details: Partly cloudy 2500 ft
2021/03/08 03:51 KSMO 080351Z AUTO 00000KT 10SM SCT025 13/09 A3008 RMK AO2 SLP186 T01330094
 
KLAX - Los Angeles, California, USA
Distance from station: SSW 39mi, 63km
Updated: Sun, 07-Mar-2021 7:53pm PST
Overcast
Overcast
 Wind from calm
Wind: Calm
Temperature: 57°F , 14°C
Dew Point: 48°F , 9°C
Humidity: 72%
Barometer: 30.08 inHg , 1018.6 hPa
Clouds: Overcast
Visibility: 10 miles , 16 km
Cloud details: Overcast 3000 ft
2021/03/08 03:53 KLAX 080353Z 00000KT 10SM OVC030 14/09 A3008 RMK AO2 SLP186 T01390094
KMHV - Mojave, California, USA
Distance from station: N 41mi, 66km
Updated: Sun, 07-Mar-2021 7:40pm PST
Clear
Clear
 Wind from WSW
Wind: WSW 12 mph , 19 km/h
Temperature: 52°F , 11°C
Dew Point: 32°F , 0°C
Humidity: 47%
Barometer: 29.99 inHg , 1015.6 hPa
Clouds: Clear
Visibility: 10 miles , 16 km
2021/03/08 03:40 KMHV 080340Z AUTO 25010KT 10SM CLR 11/00 A2999 RMK A01
 
KFUL - Fullerton, California, USA
Distance from station: SSE 44mi, 70km
Updated: Sun, 07-Mar-2021 7:53pm PST
Overcast
Overcast
 Wind from calm
Wind: Calm
Temperature: 57°F , 14°C
Dew Point: 46°F , 8°C
Humidity: 67%
Barometer: 30.07 inHg , 1018.3 hPa
Clouds: Overcast
Visibility: 10 miles , 16 km
Cloud details: Overcast 3100 ft
2021/03/08 03:53 KFUL 080353Z 00000KT 10SM OVC031 14/08 A3007 RMK AO2 SLP180 T01440078
KONT - Ontario, California, USA
Distance from station: SE 45mi, 72km
Updated: Sun, 07-Mar-2021 7:53pm PST
Mostly cloudy
Mostly cloudy
 Wind from W
Wind: W 14 mph , 22 km/h
Temperature: 54°F , 12°C
Dew Point: 46°F , 8°C
Humidity: 77%
Barometer: 30.06 inHg , 1017.9 hPa
Clouds: Mostly cloudy
Visibility: 10 miles , 16 km
Cloud details: Few Clouds 3000 ft
Partly cloudy 18000 ft
Mostly cloudy 23000 ft
2021/03/08 03:53 KONT 080353Z 26012KT 10SM FEW030 SCT180 BKN230 12/08 A3006 RMK AO2 SLP180 T01220078
 
KLGB - Long Beach, California, USA
Distance from station: S 46mi, 74km
Updated: Sun, 07-Mar-2021 7:53pm PST
Mostly cloudy
Mostly cloudy
 Wind from calm
Wind: Calm
Temperature: 57°F , 14°C
Dew Point: 48°F , 9°C
Humidity: 72%
Barometer: 30.08 inHg , 1018.6 hPa
Clouds: Mostly cloudy
Visibility: 10 miles , 16 km
Cloud details: Mostly cloudy 3300 ft
2021/03/08 03:53 KLGB 080353Z 00000KT 10SM BKN033 14/09 A3008 RMK AO2 SLP185 T01390089
KVCV - Victorville, California, USA
Distance from station: E 46mi, 74km
Updated: Sun, 07-Mar-2021 7:45pm PST
Clear
Clear
 Wind from SSW
Wind: SSW 21 mph , 33 km/h
Barometer: 29.99 inHg , 1015.6 hPa
Clouds: Clear
Visibility: 10 miles , 16 km
2021/03/08 03:45 KVCV 080345Z 20018KT 10SM SKC A2999
 
KTSP - Tehachapi, California, USA
Distance from station: NNW 48mi, 77km
Updated: Sat, 06-Mar-2021 1:55am PST
NOT Current
Clear
Clear
 Wind from W
Wind: W 18 mph , 30 km/h
Temperature: 43°F , 6°C
Wind Chill: 35°F , 2°C
Dew Point: 28°F , -2°C
Humidity: 57%
Barometer: 30.12 inHg , 1020 hPa
Clouds: Clear
Visibility: 10 miles , 16 km
2021/03/06 09:55 KTSP 060955Z AUTO 28016KT 10SM CLR 06/M02 A3012 RMK AO2